TimeCST,TemperatureF,Dew PointF,Humidity,Sea Level PressureIn,VisibilityMPH,Wind Direction,Wind SpeedMPH,Gust SpeedMPH,PrecipitationIn,Events,Conditions,WindDirDegrees,DateUTC
12:51 AM,68.0,57.0,68,30.00,10.0,SSE,19.6,-,N/A,,Overcast,160,2013-02-18 06:51:00
1:51 AM,68.0,57.0,68,29.98,10.0,SSE,18.4,-,N/A,,Overcast,160,2013-02-18 07:51:00
2:51 AM,68.0,57.9,70,29.96,10.0,SSE,19.6,-,N/A,,Overcast,160,2013-02-18 08:51:00
3:51 AM,68.0,57.9,70,29.93,10.0,SSE,19.6,-,N/A,,Overcast,160,2013-02-18 09:51:00
4:51 AM,66.9,59.0,76,29.91,10.0,SSE,16.1,-,N/A,,Overcast,160,2013-02-18 10:51:00
5:51 AM,68.0,60.1,76,29.91,10.0,SSE,19.6,-,N/A,,Overcast,160,2013-02-18 11:51:00
7:05 AM,68.0,60.8,78,29.92,10.0,SSE,17.3,-,0.00,,Overcast,160,2013-02-18 13:05:00
7:51 AM,69.1,61.0,75,29.93,10.0,South,16.1,-,0.00,,Overcast,170,2013-02-18 13:51:00
8:51 AM,70.0,62.1,76,29.94,10.0,South,20.7,-,N/A,,Mostly Cloudy,170,2013-02-18 14:51:00
9:38 AM,71.6,62.6,73,29.94,10.0,South,21.9,-,N/A,,Mostly Cloudy,170,2013-02-18 15:38:00
9:51 AM,73.0,62.1,68,29.94,10.0,South,23.0,-,N/A,,Mostly Cloudy,170,2013-02-18 15:51:00
10:51 AM,75.9,63.0,64,29.93,10.0,South,26.5,-,N/A,,Mostly Cloudy,170,2013-02-18 16:51:00
11:51 AM,77.0,63.0,62,29.94,10.0,South,18.4,25.3,N/A,,Mostly Cloudy,180,2013-02-18 17:51:00
12:51 PM,80.1,63.0,56,29.91,10.0,South,18.4,26.5,N/A,,Mostly Cloudy,170,2013-02-18 18:51:00
1:51 PM,82.9,64.0,53,29.87,10.0,SSE,19.6,-,N/A,,Mostly Cloudy,160,2013-02-18 19:51:00
2:51 PM,82.9,64.0,53,29.86,10.0,SE,24.2,29.9,N/A,,Scattered Clouds,140,2013-02-18 20:51:00
3:51 PM,81.0,62.1,52,29.84,10.0,SSE,26.5,32.2,N/A,,Scattered Clouds,150,2013-02-18 21:51:00
4:51 PM,80.1,61.0,52,29.85,10.0,SSE,25.3,-,N/A,,Partly Cloudy,160,2013-02-18 22:51:00
5:51 PM,75.9,61.0,60,29.87,10.0,SSE,24.2,-,N/A,,Partly Cloudy,160,2013-02-18 23:51:00
6:51 PM,73.0,60.1,64,29.89,10.0,SSE,19.6,-,N/A,,Partly Cloudy,160,2013-02-19 00:51:00
7:51 PM,71.1,61.0,70,29.93,10.0,South,16.1,-,N/A,,Partly Cloudy,170,2013-02-19 01:51:00
8:51 PM,69.1,60.1,73,29.96,10.0,SSE,8.1,-,N/A,,Partly Cloudy,160,2013-02-19 02:51:00
9:51 PM,68.0,60.1,76,29.98,10.0,South,11.5,-,N/A,,Clear,170,2013-02-19 03:51:00
10:51 PM,64.9,59.0,81,30.00,10.0,South,9.2,-,N/A,,Clear,170,2013-02-19 04:51:00
11:51 PM,64.0,59.0,84,29.99,10.0,South,9.2,-,N/A,,Clear,170,2013-02-19 05:51:00